createdAt,value
2018-09-28T00:02:11.118Z,17.75
2018-09-28T00:04:38.312Z,14.95
2018-09-28T00:07:05.490Z,15.88
2018-09-28T00:09:32.686Z,11.05
2018-09-28T00:11:59.901Z,12.98
2018-09-28T00:14:27.078Z,12.50
2018-09-28T00:16:54.275Z,11.45
2018-09-28T00:19:21.484Z,16.25
2018-09-28T00:21:48.663Z,13.10
2018-09-28T00:24:15.840Z,14.18
2018-09-28T00:26:43.025Z,13.15
2018-09-28T00:29:10.201Z,11.88
2018-09-28T00:31:37.476Z,13.70
2018-09-28T00:34:04.667Z,12.20
2018-09-28T00:36:31.853Z,14.33
2018-09-28T00:38:59.133Z,14.83
2018-09-28T00:41:26.323Z,12.05
2018-09-28T00:43:53.497Z,16.27
2018-09-28T00:46:20.666Z,16.20
2018-09-28T00:48:47.859Z,14.40
2018-09-28T00:51:15.035Z,19.37
2018-09-28T00:53:42.223Z,13.15
2018-09-28T00:56:09.420Z,14.98
2018-09-28T00:58:36.682Z,11.60
2018-09-28T01:01:03.855Z,11.18
2018-09-28T01:03:31.046Z,11.33
2018-09-28T01:05:58.224Z,11.35
2018-09-28T01:08:25.408Z,16.62
2018-09-28T01:10:52.746Z,19.50
2018-09-28T01:13:19.940Z,17.87
2018-09-28T01:15:47.142Z,15.80
2018-09-28T01:18:14.306Z,16.60
2018-09-28T01:20:41.515Z,19.90
2018-09-28T01:23:08.683Z,15.35
2018-09-28T01:25:36.299Z,17.20
2018-09-28T01:28:03.471Z,17.65
2018-09-28T01:30:30.694Z,12.60
2018-09-28T01:32:57.965Z,12.13
2018-09-28T01:35:25.150Z,12.82
2018-09-28T01:37:52.337Z,11.70
2018-09-28T01:40:19.527Z,11.05
2018-09-28T01:42:46.708Z,12.28
2018-09-28T01:45:13.914Z,12.43
2018-09-28T01:47:41.093Z,12.98
2018-09-28T01:50:08.274Z,11.95
2018-09-28T01:52:35.464Z,12.85
2018-09-28T01:55:02.650Z,13.58
2018-09-28T01:57:29.837Z,14.07
2018-09-28T01:59:57.327Z,15.60
2018-09-28T02:02:24.865Z,19.42
2018-09-28T02:04:52.051Z,15.85
2018-09-28T02:07:19.240Z,18.07
2018-09-28T02:09:46.542Z,14.87
2018-09-28T02:12:13.724Z,15.43
2018-09-28T02:14:40.891Z,18.37
2018-09-28T02:17:08.075Z,15.95
2018-09-28T02:19:35.260Z,19.55
2018-09-28T02:22:02.452Z,16.32
2018-09-28T02:24:29.630Z,14.55
2018-09-28T02:26:56.803Z,16.42
2018-09-28T02:29:24.004Z,18.37
2018-09-28T02:31:51.166Z,19.23
2018-09-28T02:34:18.362Z,15.38
2018-09-28T02:36:45.547Z,20.35
2018-09-28T02:39:12.739Z,14.60
2018-09-28T02:41:39.914Z,16.10
2018-09-28T02:44:07.100Z,15.53
2018-09-28T02:46:34.270Z,17.48
2018-09-28T02:49:01.724Z,16.12
2018-09-28T02:51:28.900Z,17.32
2018-09-28T02:53:56.106Z,16.75
2018-09-28T02:56:23.325Z,17.17
2018-09-28T02:58:50.513Z,22.98
2018-09-28T03:01:17.692Z,23.18
2018-09-28T03:03:44.968Z,21.25
2018-09-28T03:06:12.174Z,24.82
2018-09-28T03:08:39.338Z,23.22
2018-09-28T03:11:06.663Z,22.77
2018-09-28T03:13:33.871Z,20.95
2018-09-28T03:16:01.056Z,19.77
2018-09-28T03:18:28.682Z,20.15
2018-09-28T03:20:56.345Z,17.87
2018-09-28T03:23:23.552Z,17.70
2018-09-28T03:25:50.760Z,14.95
2018-09-28T03:28:18.574Z,16.30
2018-09-28T03:30:46.073Z,21.70
2018-09-28T03:33:13.273Z,14.23
2018-09-28T03:35:41.730Z,17.37
2018-09-28T03:38:08.947Z,19.60
2018-09-28T03:40:36.279Z,17.87
2018-09-28T03:43:03.453Z,16.35
2018-09-28T03:45:31.508Z,16.48
2018-09-28T03:47:58.710Z,15.65
2018-09-28T03:50:25.944Z,16.60
2018-09-28T03:52:53.122Z,13.40
2018-09-28T03:55:20.317Z,16.35
2018-09-28T03:57:47.629Z,15.83
2018-09-28T04:00:14.831Z,13.88
2018-09-28T04:02:42.092Z,12.28
2018-09-28T04:05:09.341Z,13.40
2018-09-28T04:07:36.966Z,13.90
2018-09-28T04:10:04.738Z,13.62
2018-09-28T04:12:32.224Z,15.93
2018-09-28T04:14:59.711Z,16.67
2018-09-28T04:17:27.072Z,16.17
2018-09-28T04:19:54.277Z,14.15
2018-09-28T04:22:21.540Z,14.63
2018-09-28T04:24:48.754Z,15.00
2018-09-28T04:27:15.930Z,17.48
2018-09-28T04:29:43.118Z,15.35
2018-09-28T04:32:10.326Z,18.73
2018-09-28T04:34:37.529Z,17.23
2018-09-28T04:37:04.714Z,18.65
2018-09-28T04:39:31.918Z,18.98
2018-09-28T04:41:59.095Z,21.52
2018-09-28T04:44:26.321Z,24.00
2018-09-28T04:46:53.515Z,17.65
2018-09-28T04:49:20.687Z,20.92
2018-09-28T04:51:47.868Z,23.00
2018-09-28T04:54:15.059Z,17.48
2018-09-28T04:56:42.239Z,24.90
2018-09-28T04:59:09.419Z,17.57
2018-09-28T05:01:36.620Z,18.92
2018-09-28T05:04:03.797Z,14.43
2018-09-28T05:06:30.966Z,16.32
2018-09-28T05:08:58.167Z,16.97
2018-09-28T05:11:25.356Z,14.70
2018-09-28T05:13:52.559Z,13.93
2018-09-28T05:16:19.749Z,14.90
2018-09-28T05:18:46.949Z,14.07
2018-09-28T05:21:14.135Z,17.23
2018-09-28T05:23:41.327Z,13.85
2018-09-28T05:26:08.507Z,14.98
2018-09-28T05:28:35.704Z,15.25
2018-09-28T05:31:02.924Z,20.20
2018-09-28T05:33:30.671Z,15.70
2018-09-28T05:35:59.123Z,16.27
2018-09-28T05:38:26.646Z,15.43
2018-09-28T05:40:53.918Z,16.10
2018-09-28T05:43:21.170Z,21.65
2018-09-28T05:45:48.368Z,18.17
2018-09-28T05:48:15.564Z,16.52
2018-09-28T05:50:42.776Z,15.20
2018-09-28T05:53:09.973Z,14.28
2018-09-28T05:55:37.387Z,18.80
2018-09-28T05:58:10.255Z,16.12
2018-09-28T06:00:42.922Z,18.95
2018-09-28T06:03:12.794Z,16.27
2018-09-28T06:05:42.292Z,15.35
2018-09-28T06:08:09.612Z,15.28
2018-09-28T06:10:36.965Z,17.87
2018-09-28T06:13:04.276Z,12.70
2018-09-28T06:15:31.702Z,12.60
2018-09-28T06:17:59.016Z,14.87
2018-09-28T06:20:26.161Z,16.12
2018-09-28T06:22:53.642Z,17.85
2018-09-28T06:25:20.992Z,17.17
2018-09-28T06:27:48.330Z,14.20
2018-09-28T06:30:15.581Z,18.90
2018-09-28T06:32:42.782Z,15.55
2018-09-28T06:35:09.988Z,14.60
2018-09-28T06:37:37.154Z,17.62
2018-09-28T06:40:04.455Z,16.10
2018-09-28T06:42:31.736Z,24.27
2018-09-28T06:44:58.924Z,14.55
2018-09-28T06:47:26.110Z,17.00
2018-09-28T06:49:53.363Z,14.38
2018-09-28T06:52:20.540Z,13.80
2018-09-28T06:54:47.760Z,13.50
2018-09-28T06:57:15.745Z,12.33
2018-09-28T06:59:43.150Z,15.80
2018-09-28T07:02:10.309Z,16.73
2018-09-28T07:04:37.531Z,13.25
2018-09-28T07:07:04.702Z,21.10
2018-09-28T07:09:32.088Z,18.48
2018-09-28T07:11:59.320Z,13.30
2018-09-28T07:14:26.415Z,15.50
2018-09-28T07:16:53.668Z,13.18
2018-09-28T07:19:20.833Z,14.83
2018-09-28T07:21:48.012Z,14.87
2018-09-28T07:24:15.251Z,22.07
2018-09-28T07:26:42.431Z,13.13
2018-09-28T07:29:10.700Z,13.95
2018-09-28T07:31:37.953Z,11.75
2018-09-28T07:34:05.160Z,13.45
2018-09-28T07:36:32.495Z,17.07
2018-09-28T07:38:59.579Z,18.27
2018-09-28T07:41:26.771Z,13.05
2018-09-28T07:43:54.038Z,17.40
2018-09-28T07:46:21.288Z,25.00
2018-09-28T07:48:48.465Z,15.05
2018-09-28T07:51:15.681Z,15.28
2018-09-28T07:53:42.876Z,13.48
2018-09-28T07:56:10.055Z,17.30
2018-09-28T07:58:37.347Z,21.42
2018-09-28T08:01:04.550Z,14.47
2018-09-28T08:03:31.730Z,15.28
2018-09-28T08:05:59.871Z,13.75
2018-09-28T08:08:27.078Z,17.48
2018-09-28T08:10:54.294Z,14.60
2018-09-28T08:13:21.865Z,14.95
2018-09-28T08:15:49.097Z,12.90
2018-09-28T08:18:16.353Z,14.20
2018-09-28T08:20:43.639Z,14.45
2018-09-28T08:23:10.839Z,17.17
2018-09-28T08:25:38.050Z,13.78
2018-09-28T08:28:05.422Z,16.77
2018-09-28T08:30:32.716Z,14.90
2018-09-28T08:32:59.827Z,17.65
2018-09-28T08:35:27.030Z,14.68
2018-09-28T08:37:54.222Z,13.38
2018-09-28T08:40:21.430Z,13.70
2018-09-28T08:42:48.620Z,14.30
2018-09-28T08:45:15.816Z,15.43
2018-09-28T08:47:43.023Z,15.45
2018-09-28T08:50:10.290Z,15.03
2018-09-28T08:52:37.480Z,22.80
2018-09-28T08:55:04.671Z,18.55
2018-09-28T08:57:31.887Z,14.65
2018-09-28T08:59:59.161Z,16.25
2018-09-28T09:02:26.360Z,14.65
2018-09-28T09:04:53.559Z,14.73
2018-09-28T09:07:20.747Z,15.18
2018-09-28T09:09:47.931Z,19.42
2018-09-28T09:12:15.140Z,18.60
2018-09-28T09:14:42.398Z,18.40
2018-09-28T09:17:09.599Z,20.27
2018-09-28T09:19:36.800Z,19.62
2018-09-28T09:22:03.979Z,17.42
2018-09-28T09:24:31.275Z,15.23
2018-09-28T09:26:58.497Z,14.33
2018-09-28T09:29:25.781Z,15.72
2018-09-28T09:31:52.963Z,15.03
2018-09-28T09:34:20.170Z,17.35
2018-09-28T09:36:47.432Z,14.87
2018-09-28T09:39:14.620Z,21.95
2018-09-28T09:41:42.100Z,15.48
2018-09-28T09:44:09.283Z,14.20
2018-09-28T09:46:36.520Z,13.03
2018-09-28T09:49:03.796Z,19.07
2018-09-28T09:51:30.970Z,23.00
2018-09-28T09:53:58.155Z,17.92
2018-09-28T09:56:25.361Z,17.27
2018-09-28T09:58:52.598Z,19.30
2018-09-28T10:01:25.348Z,18.25
2018-09-28T10:03:52.528Z,15.83
2018-09-28T10:06:19.854Z,14.95
2018-09-28T10:08:47.055Z,17.25
2018-09-28T10:11:14.244Z,16.67
2018-09-28T10:13:41.418Z,19.82
2018-09-28T10:16:08.907Z,15.30
2018-09-28T10:18:36.111Z,22.48
2018-09-28T10:21:03.293Z,20.90
2018-09-28T10:23:30.481Z,16.97
2018-09-28T10:25:57.639Z,16.32
2018-09-28T10:28:24.973Z,35.95
2018-09-28T10:30:53.226Z,21.45
2018-09-28T10:33:20.727Z,21.97
2018-09-28T10:35:47.931Z,45.28
2018-09-28T10:38:15.652Z,51.02
2018-09-28T10:40:43.009Z,27.17
2018-09-28T10:43:10.662Z,25.90
2018-09-28T10:45:38.564Z,36.93
2018-09-28T10:48:07.011Z,24.70
2018-09-28T10:50:34.214Z,32.30
2018-09-28T10:53:02.506Z,32.70
2018-09-28T10:55:29.725Z,32.28
2018-09-28T10:57:56.915Z,31.30
2018-09-28T11:00:24.203Z,33.98
2018-09-28T11:02:51.458Z,36.90
2018-09-28T11:05:18.651Z,41.37
2018-09-28T11:07:46.339Z,32.85
2018-09-28T11:10:13.868Z,31.33
2018-09-28T11:12:41.655Z,31.90
2018-09-28T11:15:09.997Z,38.83
2018-09-28T11:17:37.209Z,32.65
2018-09-28T11:20:04.414Z,35.70
2018-09-28T11:22:31.815Z,37.10
2018-09-28T11:24:59.185Z,29.02
2018-09-28T11:27:26.686Z,27.50
2018-09-28T11:29:53.809Z,40.05
2018-09-28T11:32:21.015Z,33.30
2018-09-28T11:34:48.229Z,34.08
2018-09-28T11:37:15.423Z,34.92
2018-09-28T11:39:42.676Z,27.87
2018-09-28T11:42:10.132Z,29.80
2018-09-28T11:44:37.383Z,29.42
2018-09-28T11:47:04.631Z,27.27
2018-09-28T11:49:31.905Z,26.73
2018-09-28T11:51:59.095Z,35.10
2018-09-28T11:54:26.291Z,33.07
2018-09-28T11:56:53.646Z,25.52
2018-09-28T11:59:20.824Z,35.70
2018-09-28T12:01:48.031Z,39.70
2018-09-28T12:04:15.204Z,27.47
2018-09-28T12:06:42.421Z,35.87
2018-09-28T12:09:11.389Z,34.47
2018-09-28T12:11:38.563Z,26.37
2018-09-28T12:14:05.742Z,29.20
2018-09-28T12:16:32.947Z,30.73
2018-09-28T12:19:00.127Z,27.63
2018-09-28T12:21:27.367Z,21.80
2018-09-28T12:23:54.530Z,26.93
2018-09-28T12:26:21.729Z,21.97
2018-09-28T12:28:48.916Z,23.33
2018-09-28T12:31:16.117Z,21.77
2018-09-28T12:33:43.352Z,20.93
2018-09-28T12:36:10.556Z,23.15
2018-09-28T12:38:37.726Z,24.53
2018-09-28T12:41:04.914Z,22.83
2018-09-28T12:43:35.033Z,20.27
2018-09-28T12:45:59.299Z,25.17
2018-09-28T12:48:26.536Z,22.80
2018-09-28T12:50:53.666Z,22.93
2018-09-28T12:53:20.868Z,24.20
2018-09-28T12:55:48.093Z,19.23
2018-09-28T12:58:15.262Z,19.67
2018-09-28T13:00:42.516Z,16.90
2018-09-28T13:03:09.630Z,22.17
2018-09-28T13:05:36.820Z,19.70
2018-09-28T13:08:04.024Z,16.53
2018-09-28T13:10:31.207Z,20.77
2018-09-28T13:12:58.394Z,16.40
2018-09-28T13:15:25.672Z,25.00
2018-09-28T13:17:52.859Z,22.73
2018-09-28T13:20:20.142Z,21.70
2018-09-28T13:22:47.271Z,17.10
2018-09-28T13:25:14.473Z,16.90
2018-09-28T13:27:41.671Z,18.90
2018-09-28T13:30:08.955Z,19.60
2018-09-28T13:32:36.154Z,15.00
2018-09-28T13:35:03.443Z,16.60
2018-09-28T13:37:30.626Z,16.30
2018-09-28T13:39:57.810Z,15.17
2018-09-28T13:42:25.083Z,15.27
2018-09-28T13:44:52.289Z,15.13
2018-09-28T13:47:19.409Z,15.17
2018-09-28T13:49:46.612Z,16.77
2018-09-28T13:52:13.854Z,18.53
2018-09-28T13:54:41.196Z,9.43
2018-09-28T13:57:08.300Z,5.62
2018-09-28T13:59:35.598Z,5.58
2018-09-28T14:02:02.775Z,6.62
2018-09-28T14:04:30.007Z,7.12
2018-09-28T14:06:57.247Z,10.78
2018-09-28T14:09:24.362Z,7.05
2018-09-28T14:11:51.539Z,5.70
2018-09-28T14:14:18.805Z,7.65
2018-09-28T14:16:46.085Z,7.00
2018-09-28T14:19:13.222Z,14.80
2018-09-28T14:21:40.451Z,10.28
2018-09-28T14:24:07.814Z,10.30
2018-09-28T14:26:35.016Z,11.18
2018-09-28T14:29:02.203Z,11.38
2018-09-28T14:31:29.372Z,11.48
2018-09-28T14:33:56.538Z,8.93
2018-09-28T14:36:24.042Z,5.97
2018-09-28T14:38:51.182Z,10.38
2018-09-28T14:41:18.370Z,8.75
2018-09-28T14:43:45.622Z,7.58
2018-09-28T14:46:12.846Z,10.98
2018-09-28T14:48:40.050Z,7.92
2018-09-28T14:51:07.368Z,11.30
2018-09-28T14:53:34.535Z,10.50
2018-09-28T14:56:01.711Z,8.50
2018-09-28T14:58:28.944Z,9.28
2018-09-28T15:00:56.240Z,6.35
2018-09-28T15:03:23.309Z,5.50
2018-09-28T15:05:50.504Z,5.70
2018-09-28T15:08:17.713Z,8.70
2018-09-28T15:10:44.917Z,6.28
2018-09-28T15:13:12.067Z,5.37
2018-09-28T15:15:39.283Z,6.45
2018-09-28T15:18:06.548Z,5.85
2018-09-28T15:20:33.727Z,3.45
2018-09-28T15:23:00.913Z,3.95
2018-09-28T15:25:28.079Z,6.10
2018-09-28T15:27:55.269Z,5.42
2018-09-28T15:30:22.521Z,5.20
2018-09-28T15:32:49.644Z,4.42
2018-09-28T15:35:16.914Z,5.03
2018-09-28T15:37:44.042Z,3.05
2018-09-28T15:40:11.207Z,4.70
2018-09-28T15:42:38.405Z,3.02
2018-09-28T15:45:05.582Z,8.13
2018-09-28T15:47:32.909Z,3.90
2018-09-28T15:50:00.039Z,3.20
2018-09-28T15:52:27.361Z,2.47
2018-09-28T15:54:55.115Z,3.95
2018-09-28T15:57:22.800Z,2.02
2018-09-28T15:59:49.980Z,2.52
2018-09-28T16:02:17.163Z,2.45
2018-09-28T16:04:44.344Z,2.45
2018-09-28T16:07:11.580Z,2.15
2018-09-28T16:09:38.747Z,2.77
2018-09-28T16:12:05.974Z,2.70
2018-09-28T16:14:33.118Z,2.35
2018-09-28T16:17:00.274Z,3.27
2018-09-28T16:19:27.443Z,4.70
2018-09-28T16:21:54.627Z,3.27
2018-09-28T16:24:21.789Z,2.92
2018-09-28T16:26:48.968Z,2.70
2018-09-28T16:29:16.144Z,3.33
2018-09-28T16:31:43.416Z,3.12
2018-09-28T16:34:10.684Z,3.20
2018-09-28T16:36:37.931Z,3.30
2018-09-28T16:39:06.863Z,3.35
2018-09-28T16:41:34.059Z,2.83
2018-09-28T16:44:01.235Z,4.12
2018-09-28T16:46:28.428Z,3.60
2018-09-28T16:48:55.635Z,4.28
2018-09-28T16:51:22.804Z,4.03
2018-09-28T16:53:50.086Z,4.55
2018-09-28T16:56:17.307Z,7.22
2018-09-28T16:58:44.495Z,4.70
2018-09-28T17:01:11.683Z,5.20
2018-09-28T17:03:38.924Z,5.03
2018-09-28T17:06:06.079Z,5.08
2018-09-28T17:08:33.274Z,4.72
2018-09-28T17:11:00.462Z,5.40
2018-09-28T17:13:27.645Z,5.83
2018-09-28T17:15:54.907Z,4.58
2018-09-28T17:18:22.091Z,4.62
2018-09-28T17:20:49.289Z,5.83
2018-09-28T17:23:16.479Z,6.40
2018-09-28T17:25:43.691Z,5.55
2018-09-28T17:28:10.919Z,6.30
2018-09-28T17:30:38.099Z,5.92
2018-09-28T17:33:05.298Z,7.85
2018-09-28T17:35:32.477Z,5.40
2018-09-28T17:37:59.763Z,7.58
2018-09-28T17:40:26.945Z,7.83
2018-09-28T17:42:54.127Z,9.93
2018-09-28T17:45:21.404Z,4.60
2018-09-28T17:47:48.613Z,7.55
2018-09-28T17:50:15.803Z,6.67
2018-09-28T17:52:43.001Z,4.37
2018-09-28T17:55:10.210Z,13.93
2018-09-28T17:57:37.395Z,5.20
2018-09-28T18:00:04.712Z,4.87
2018-09-28T18:02:31.907Z,5.87
2018-09-28T18:04:59.170Z,7.47
2018-09-28T18:07:26.356Z,7.87
2018-09-28T18:09:53.560Z,7.65
2018-09-28T18:12:20.746Z,10.43
2018-09-28T18:14:47.959Z,7.20
2018-09-28T18:17:15.166Z,13.08
2018-09-28T18:19:42.355Z,7.95
2018-09-28T18:22:09.633Z,13.40
2018-09-28T18:24:36.825Z,7.80
2018-09-28T18:27:04.045Z,7.37
2018-09-28T18:29:31.232Z,15.90
2018-09-28T18:31:58.431Z,9.88
2018-09-28T18:34:25.623Z,7.53
2018-09-28T18:36:52.804Z,12.33
2018-09-28T18:39:19.994Z,8.75
2018-09-28T18:41:47.174Z,9.98
2018-09-28T18:44:14.371Z,10.53
2018-09-28T18:46:41.567Z,6.58
2018-09-28T18:49:08.751Z,8.08
2018-09-28T18:51:35.938Z,8.90
2018-09-28T18:54:03.146Z,6.80
2018-09-28T18:56:30.357Z,9.05
2018-09-28T18:58:57.556Z,8.38
2018-09-28T19:01:24.746Z,7.03
2018-09-28T19:03:51.963Z,9.38
2018-09-28T19:06:19.240Z,16.48
2018-09-28T19:08:46.357Z,11.15
2018-09-28T19:11:13.548Z,8.15
2018-09-28T19:13:40.740Z,8.55
2018-09-28T19:16:07.917Z,6.72
2018-09-28T19:18:35.121Z,4.78
2018-09-28T19:21:02.315Z,9.43
2018-09-28T19:23:29.516Z,9.48
2018-09-28T19:25:56.704Z,8.78
2018-09-28T19:28:23.914Z,11.80
2018-09-28T19:30:51.189Z,11.63
2018-09-28T19:33:18.386Z,7.72
2018-09-28T19:35:45.561Z,5.92
2018-09-28T19:38:12.739Z,15.32
2018-09-28T19:40:39.935Z,11.70
2018-09-28T19:43:07.117Z,12.88
2018-09-28T19:45:34.316Z,7.80
2018-09-28T19:48:01.517Z,7.53
2018-09-28T19:50:28.711Z,10.53
2018-09-28T19:52:55.883Z,9.50
2018-09-28T19:55:23.085Z,10.00
2018-09-28T19:57:50.327Z,6.42
2018-09-28T20:00:17.462Z,10.58
2018-09-28T20:02:44.807Z,7.53
2018-09-28T20:05:11.994Z,8.85
2018-09-28T20:07:39.201Z,5.17
2018-09-28T20:10:06.428Z,7.30
2018-09-28T20:12:33.611Z,9.15
2018-09-28T20:15:00.871Z,11.43
2018-09-28T20:17:28.068Z,8.68
2018-09-28T20:19:55.276Z,11.83
2018-09-28T20:22:22.472Z,13.43
2018-09-28T20:24:49.663Z,10.95
2018-09-28T20:27:16.860Z,6.80
2018-09-28T20:29:44.034Z,9.53
2018-09-28T20:32:11.207Z,6.50
2018-09-28T20:34:38.395Z,8.70
2018-09-28T20:37:05.604Z,9.30
2018-09-28T20:39:32.796Z,12.33
2018-09-28T20:41:59.996Z,10.38
2018-09-28T20:44:27.278Z,12.55
2018-09-28T20:46:54.475Z,9.78
2018-09-28T20:49:21.653Z,8.63
2018-09-28T20:51:48.850Z,8.53
2018-09-28T20:54:16.035Z,8.28
2018-09-28T20:56:43.221Z,5.62
2018-09-28T20:59:10.408Z,11.18
2018-09-28T21:01:37.599Z,7.53
2018-09-28T21:04:04.767Z,5.87
2018-09-28T21:06:31.971Z,7.92
2018-09-28T21:08:59.159Z,7.92
2018-09-28T21:11:26.348Z,10.75
2018-09-28T21:13:53.541Z,9.03
2018-09-28T21:16:20.706Z,6.75
2018-09-28T21:18:47.896Z,13.62
2018-09-28T21:21:15.063Z,7.22
2018-09-28T21:23:42.256Z,11.35
2018-09-28T21:26:09.443Z,9.78
2018-09-28T21:28:36.647Z,10.00
2018-09-28T21:31:03.847Z,7.42
2018-09-28T21:33:31.044Z,10.75
2018-09-28T21:35:58.219Z,7.37
2018-09-28T21:38:25.558Z,11.83
2018-09-28T21:40:52.747Z,11.53
2018-09-28T21:43:19.928Z,12.33
2018-09-28T21:45:47.115Z,8.00
2018-09-28T21:48:14.287Z,7.83
2018-09-28T21:50:41.456Z,8.35
2018-09-28T21:53:08.630Z,11.25
2018-09-28T21:55:35.835Z,9.65
2018-09-28T21:58:03.016Z,9.88
2018-09-28T22:00:30.210Z,10.85
2018-09-28T22:02:58.161Z,9.75
2018-09-28T22:05:25.340Z,13.13
2018-09-28T22:07:52.634Z,8.18
2018-09-28T22:10:19.817Z,10.32
2018-09-28T22:12:47.007Z,10.00
2018-09-28T22:15:14.175Z,7.85
2018-09-28T22:17:41.352Z,16.25
2018-09-28T22:20:08.534Z,10.98
2018-09-28T22:22:35.719Z,10.48
2018-09-28T22:25:02.908Z,7.72
2018-09-28T22:27:30.090Z,10.90
2018-09-28T22:29:57.267Z,11.15
2018-09-28T22:32:24.446Z,10.03
2018-09-28T22:34:51.622Z,9.48
2018-09-28T22:37:18.799Z,9.28
2018-09-28T22:39:45.987Z,8.83
2018-09-28T22:42:13.158Z,7.92
2018-09-28T22:44:40.334Z,11.48
2018-09-28T22:47:07.531Z,8.03
2018-09-28T22:49:34.699Z,13.32
2018-09-28T22:52:01.847Z,9.05
2018-09-28T22:54:29.036Z,9.05
2018-09-28T22:56:56.219Z,9.68
2018-09-28T22:59:23.411Z,11.70
2018-09-28T23:01:50.574Z,9.25
2018-09-28T23:04:17.742Z,10.60
2018-09-28T23:06:44.917Z,7.92
2018-09-28T23:09:12.088Z,11.35
2018-09-28T23:11:39.287Z,15.55
2018-09-28T23:14:06.455Z,13.78
2018-09-28T23:16:33.746Z,13.13
2018-09-28T23:19:01.045Z,12.20
2018-09-28T23:21:28.365Z,15.05
2018-09-28T23:23:55.547Z,9.53
2018-09-28T23:26:22.720Z,15.28
2018-09-28T23:28:49.918Z,11.90
2018-09-28T23:31:17.117Z,14.50
2018-09-28T23:33:44.293Z,12.93
2018-09-28T23:36:11.500Z,9.70
2018-09-28T23:38:38.703Z,12.70
2018-09-28T23:41:05.894Z,11.70
2018-09-28T23:43:33.088Z,14.15
2018-09-28T23:46:00.274Z,7.83
2018-09-28T23:48:27.476Z,10.88
2018-09-28T23:50:54.642Z,7.87
2018-09-28T23:53:21.850Z,12.80
2018-09-28T23:55:49.061Z,13.30
2018-09-28T23:58:16.230Z,16.60
